Time;durP1;ratioP1;P1;durP2;ratioP2;P2;SDS_P1;SDS_P2;PMS_P1;PMS_P2;Temp;Humidity;BMP_temperature;BMP_pressure;BME280_temperature;BME280_humidity;BME280_pressure;Samples;Min_cycle;Max_cycle;Signal;HPM_P1;HPM_P2
2024/01/03 00:02:17;;;;;;;4.93;1.50;;;10.10;99.90;;;;;;5032861;28;20277;-72
2024/01/03 00:04:43;;;;;;;10.07;1.90;;;10.10;99.90;;;;;;5032472;28;20108;-74
2024/01/03 00:07:10;;;;;;;12.15;1.90;;;10.10;99.90;;;;;;5032320;28;20105;-74
2024/01/03 00:09:35;;;;;;;5.35;1.75;;;10.10;99.90;;;;;;5032021;28;20077;-73
2024/01/03 00:12:03;;;;;;;11.52;2.00;;;10.20;99.90;;;;;;5031779;28;20072;-73
2024/01/03 00:14:31;;;;;;;5.75;1.50;;;10.30;99.90;;;;;;5030067;28;20025;-74
2024/01/03 00:17:03;;;;;;;12.50;1.70;;;10.30;99.90;;;;;;5030864;28;20388;-74
2024/01/03 00:19:29;;;;;;;11.00;2.22;;;10.30;99.90;;;;;;5030946;28;20032;-74
2024/01/03 00:21:55;;;;;;;9.23;1.73;;;10.30;99.90;;;;;;5035427;28;20029;-75
2024/01/03 00:24:21;;;;;;;11.63;1.85;;;10.30;99.90;;;;;;5035162;28;20036;-74
2024/01/03 00:26:46;;;;;;;6.03;1.48;;;10.20;99.90;;;;;;5034957;28;20041;-73
2024/01/03 00:29:24;;;;;;;7.10;1.70;;;10.40;99.90;;;;;;5017744;28;20155;-73
2024/01/03 00:31:51;;;;;;;9.35;1.80;;;10.40;99.90;;;;;;5014472;28;20033;-74
2024/01/03 00:34:37;;;;;;;10.35;1.80;;;10.40;99.90;;;;;;5030026;28;20037;-73
2024/01/03 00:37:29;;;;;;;6.05;1.65;;;10.40;99.90;;;;;;5030981;28;20029;-74
2024/01/03 00:39:56;;;;;;;13.18;1.65;;;10.40;99.90;;;;;;5029417;28;20034;-74
2024/01/03 00:42:21;;;;;;;9.70;1.85;;;10.40;99.90;;;;;;5030051;28;20029;-75
2024/01/03 00:44:47;;;;;;;10.75;1.55;;;10.40;99.90;;;;;;5030393;28;20021;-75
2024/01/03 00:47:13;;;;;;;11.02;2.10;;;10.50;99.90;;;;;;5030684;28;20028;-73
2024/01/03 00:49:39;;;;;;;7.80;1.50;;;10.40;99.90;;;;;;5030716;28;20029;-74
2024/01/03 00:52:07;;;;;;;10.20;1.73;;;10.50;99.90;;;;;;5030716;28;20033;-74
2024/01/03 00:54:33;;;;;;;12.43;2.00;;;10.50;99.90;;;;;;5031873;28;20026;-74
2024/01/03 00:56:59;;;;;;;15.73;1.95;;;10.50;99.90;;;;;;5030665;28;20278;-75
2024/01/03 00:59:26;;;;;;;9.18;1.77;;;10.50;99.90;;;;;;5030467;28;20030;-74
2024/01/03 01:01:52;;;;;;;9.98;1.85;;;10.50;99.90;;;;;;5027615;28;20041;-74
2024/01/03 01:04:18;;;;;;;8.70;1.40;;;10.60;99.90;;;;;;5029667;28;20033;-74
2024/01/03 01:06:44;;;;;;;11.63;1.60;;;10.60;99.90;;;;;;5029999;28;20099;-73
2024/01/03 01:09:10;;;;;;;14.15;2.00;;;10.60;99.90;;;;;;5030350;28;20033;-72
2024/01/03 01:11:35;;;;;;;12.30;1.70;;;10.70;99.90;;;;;;5030385;28;20028;-73
2024/01/03 01:14:02;;;;;;;13.68;1.90;;;10.60;99.90;;;;;;5029697;28;20030;-74
2024/01/03 01:16:27;;;;;;;11.45;1.83;;;10.70;99.90;;;;;;5031050;28;20025;-74
2024/01/03 01:18:53;;;;;;;18.40;2.20;;;10.70;99.90;;;;;;5030970;28;20080;-73
2024/01/03 01:21:18;;;;;;;8.35;1.60;;;10.70;99.90;;;;;;5031107;28;20029;-73
2024/01/03 01:23:44;;;;;;;10.68;1.70;;;10.70;99.90;;;;;;5030429;28;20018;-75
2024/01/03 01:26:10;;;;;;;12.20;1.75;;;10.70;99.90;;;;;;5031169;28;20506;-75
2024/01/03 01:28:35;;;;;;;12.93;1.70;;;10.70;99.90;;;;;;5031100;28;20022;-73
2024/01/03 01:31:01;;;;;;;13.52;1.85;;;10.70;99.90;;;;;;5031261;28;20021;-75
2024/01/03 01:33:27;;;;;;;13.15;2.28;;;10.70;99.90;;;;;;5031419;28;20397;-74
2024/01/03 01:35:52;;;;;;;10.98;1.95;;;10.60;99.90;;;;;;5032756;28;20069;-74
2024/01/03 01:38:18;;;;;;;19.77;2.45;;;10.70;99.90;;;;;;5033994;28;20068;-74
2024/01/03 01:40:48;;;;;;;12.43;2.05;;;10.60;99.90;;;;;;5036679;28;20022;-73
2024/01/03 01:43:14;;;;;;;13.05;2.30;;;10.60;99.90;;;;;;5036924;28;20027;-74
2024/01/03 01:45:39;;;;;;;11.98;1.73;;;10.70;99.90;;;;;;5035344;28;20018;-74
2024/01/03 01:48:06;;;;;;;8.35;1.83;;;10.70;99.90;;;;;;5037323;28;20024;-73
2024/01/03 01:50:32;;;;;;;13.32;2.03;;;10.70;99.90;;;;;;5039526;28;20025;-74
2024/01/03 01:52:58;;;;;;;18.92;1.88;;;10.60;99.90;;;;;;5040130;28;20543;-74
2024/01/03 01:55:24;;;;;;;12.70;1.90;;;10.70;99.90;;;;;;5018120;28;20021;-74
2024/01/03 01:57:51;;;;;;;15.88;2.42;;;10.70;99.90;;;;;;5052861;28;20026;-74
2024/01/03 02:00:17;;;;;;;16.38;2.03;;;10.70;99.90;;;;;;5040157;28;20052;-74
2024/01/03 02:02:45;;;;;;;12.68;2.30;;;10.70;99.90;;;;;;5056256;28;20081;-74
2024/01/03 02:05:12;;;;;;;11.75;1.80;;;10.80;99.90;;;;;;5055760;28;20104;-73
2024/01/03 02:07:38;;;;;;;10.50;1.83;;;10.70;99.90;;;;;;5056244;28;20001;-73
2024/01/03 02:10:03;;;;;;;9.68;1.70;;;10.70;99.90;;;;;;5058448;28;20061;-74
2024/01/03 02:12:29;;;;;;;13.38;1.77;;;10.70;99.90;;;;;;5057810;28;20037;-74
2024/01/03 02:14:55;;;;;;;18.38;2.42;;;10.60;99.90;;;;;;5058185;28;20009;-73
2024/01/03 02:17:22;;;;;;;13.70;1.80;;;10.60;99.90;;;;;;5058299;28;20028;-73
2024/01/03 02:19:48;;;;;;;12.35;2.08;;;10.50;99.90;;;;;;5051137;28;20135;-74
2024/01/03 02:22:13;;;;;;;17.52;1.67;;;10.60;99.90;;;;;;5036371;28;20024;-74
2024/01/03 02:24:39;;;;;;;9.85;1.80;;;10.40;99.90;;;;;;5039394;28;20492;-73
2024/01/03 02:27:05;;;;;;;15.25;2.22;;;10.40;99.90;;;;;;5032743;28;20026;-74
2024/01/03 02:29:30;;;;;;;14.13;2.10;;;10.30;99.90;;;;;;5032797;28;20279;-72
2024/01/03 02:31:56;;;;;;;13.88;2.03;;;10.20;99.90;;;;;;5031461;28;20022;-72
2024/01/03 02:34:21;;;;;;;11.38;1.92;;;10.20;99.90;;;;;;5013205;28;20531;-73
2024/01/03 02:36:51;;;;;;;11.93;1.50;;;10.20;99.90;;;;;;5032753;28;20038;-75
2024/01/03 02:39:17;;;;;;;14.30;2.67;;;10.20;99.90;;;;;;5033036;28;20037;-73
2024/01/03 02:41:43;;;;;;;10.05;1.70;;;10.20;99.90;;;;;;5032479;28;20087;-74
2024/01/03 02:44:10;;;;;;;8.25;1.40;;;10.10;99.90;;;;;;5018345;28;20025;-73
2024/01/03 02:46:36;;;;;;;10.35;1.70;;;10.10;99.90;;;;;;5031856;28;20021;-73
2024/01/03 02:49:01;;;;;;;9.07;1.70;;;10.10;99.90;;;;;;5035501;28;20033;-74
2024/01/03 02:51:27;;;;;;;12.13;2.05;;;10.10;99.90;;;;;;5033957;28;20025;-74
2024/01/03 02:53:52;;;;;;;10.57;1.75;;;10.20;99.90;;;;;;5032417;28;20111;-72
2024/01/03 02:56:18;;;;;;;13.95;1.70;;;10.20;99.90;;;;;;5032238;28;20033;-74
2024/01/03 02:58:44;;;;;;;8.27;1.48;;;10.10;99.90;;;;;;5033557;28;20064;-76
2024/01/03 03:01:09;;;;;;;5.60;1.42;;;10.10;99.90;;;;;;5035296;28;20392;-74
2024/01/03 03:03:35;;;;;;;8.13;2.45;;;10.00;99.90;;;;;;5048118;28;20052;-72
2024/01/03 03:06:03;;;;;;;6.70;2.20;;;10.10;99.90;;;;;;5039831;28;20028;-75
2024/01/03 03:08:28;;;;;;;4.90;1.15;;;10.10;99.90;;;;;;5034433;28;20055;-73
2024/01/03 03:10:54;;;;;;;6.30;1.17;;;10.00;99.90;;;;;;5033586;28;20025;-73
2024/01/03 03:13:20;;;;;;;10.55;1.50;;;10.10;99.90;;;;;;5033141;28;20052;-72
2024/01/03 03:15:46;;;;;;;5.75;1.15;;;10.10;99.90;;;;;;5033083;28;20021;-74
2024/01/03 03:18:12;;;;;;;8.57;1.33;;;10.00;99.90;;;;;;5033854;28;20395;-73
2024/01/03 03:20:38;;;;;;;5.32;1.13;;;10.00;99.90;;;;;;5033680;28;20108;-73
2024/01/03 03:23:04;;;;;;;5.43;1.30;;;10.00;99.90;;;;;;5015816;28;20029;-74
2024/01/03 03:25:29;;;;;;;6.57;1.17;;;9.90;99.90;;;;;;5032823;28;20032;-73
2024/01/03 03:27:55;;;;;;;7.95;1.02;;;9.90;99.90;;;;;;5032902;28;20499;-71
2024/01/03 03:30:20;;;;;;;11.70;1.85;;;9.80;99.90;;;;;;5040273;28;20021;-73
2024/01/03 03:32:47;;;;;;;7.35;1.65;;;9.80;99.90;;;;;;5034360;28;20093;-74
2024/01/03 03:35:13;;;;;;;8.18;1.45;;;9.80;99.90;;;;;;5040247;28;20506;-74
2024/01/03 03:37:40;;;;;;;7.45;1.05;;;9.80;99.90;;;;;;5054140;28;20025;-73
2024/01/03 03:40:07;;;;;;;10.68;1.83;;;9.90;99.90;;;;;;5053291;28;20356;-75
2024/01/03 03:42:33;;;;;;;3.80;0.98;;;9.80;99.90;;;;;;5053557;28;20028;-74
2024/01/03 03:44:59;;;;;;;3.33;1.00;;;9.70;99.90;;;;;;5053218;28;20138;-74
2024/01/03 03:47:24;;;;;;;7.25;1.25;;;9.80;99.90;;;;;;5053541;28;20056;-73
2024/01/03 03:49:50;;;;;;;8.23;0.98;;;9.60;99.90;;;;;;5053303;28;20021;-73
2024/01/03 03:52:15;;;;;;;4.05;1.10;;;9.70;99.90;;;;;;5040509;28;20033;-73
2024/01/03 03:54:41;;;;;;;4.88;1.13;;;9.70;99.90;;;;;;5032809;28;20024;-71
2024/01/03 03:57:06;;;;;;;7.15;1.10;;;9.70;99.90;;;;;;5032672;28;20021;-73
2024/01/03 03:59:32;;;;;;;4.72;1.17;;;9.60;99.90;;;;;;5027740;28;20452;-75
2024/01/03 04:01:58;;;;;;;6.63;1.40;;;9.60;99.90;;;;;;5029329;28;20092;-74
2024/01/03 04:04:23;;;;;;;7.00;1.40;;;9.50;99.90;;;;;;5014378;28;20033;-72
2024/01/03 04:06:49;;;;;;;7.90;1.58;;;9.50;99.90;;;;;;5032026;28;20029;-73
2024/01/03 04:09:14;;;;;;;7.10;1.08;;;9.50;99.90;;;;;;5039396;28;20018;-72
2024/01/03 04:11:44;;;;;;;6.60;1.33;;;9.50;99.90;;;;;;5030715;28;20051;-72
2024/01/03 04:14:10;;;;;;;4.85;0.80;;;9.50;99.90;;;;;;5030570;28;20036;-72
2024/01/03 04:16:36;;;;;;;5.90;1.40;;;9.50;99.90;;;;;;5031811;28;20060;-73
2024/01/03 04:19:02;;;;;;;7.03;1.02;;;9.50;99.90;;;;;;5031262;28;20029;-75
2024/01/03 04:21:29;;;;;;;4.10;0.90;;;9.50;99.90;;;;;;5030070;28;20392;-72
2024/01/03 04:23:54;;;;;;;5.53;1.20;;;9.50;99.90;;;;;;5031308;28;20037;-73
2024/01/03 04:26:22;;;;;;;4.82;1.10;;;9.50;99.90;;;;;;5032030;28;20044;-72
2024/01/03 04:28:47;;;;;;;5.03;1.20;;;9.50;99.90;;;;;;5029907;28;20040;-74
2024/01/03 04:31:13;;;;;;;7.65;1.10;;;9.50;99.90;;;;;;5031730;28;20017;-73
2024/01/03 04:33:38;;;;;;;4.85;1.17;;;9.50;99.90;;;;;;5031285;28;20037;-73
2024/01/03 04:36:04;;;;;;;5.30;0.85;;;9.50;99.90;;;;;;5032065;28;20373;-72
2024/01/03 04:38:30;;;;;;;5.57;1.15;;;9.50;99.90;;;;;;5031731;28;20042;-71
2024/01/03 04:40:55;;;;;;;3.78;1.05;;;9.50;99.90;;;;;;5031661;28;20033;-72
2024/01/03 04:43:21;;;;;;;7.45;0.95;;;9.50;99.90;;;;;;5031342;28;20028;-73
2024/01/03 04:45:47;;;;;;;6.20;1.20;;;9.50;99.90;;;;;;5031493;28;20110;-71
2024/01/03 04:48:13;;;;;;;4.63;0.80;;;9.60;99.90;;;;;;5038180;28;20025;-72
2024/01/03 04:50:39;;;;;;;4.65;0.98;;;9.50;99.90;;;;;;5037844;28;20453;-72
2024/01/03 04:53:05;;;;;;;4.97;0.90;;;9.50;99.90;;;;;;5047732;28;20025;-73
2024/01/03 04:55:30;;;;;;;6.50;1.10;;;9.50;99.90;;;;;;5042443;28;20380;-71
2024/01/03 04:57:56;;;;;;;5.88;1.00;;;9.40;99.90;;;;;;5031810;28;20037;-74
2024/01/03 05:00:22;;;;;;;3.72;1.20;;;9.50;99.90;;;;;;5031892;28;20037;-73
2024/01/03 05:02:48;;;;;;;5.00;1.13;;;9.40;99.90;;;;;;5031595;28;20041;-72
2024/01/03 05:05:13;;;;;;;6.63;1.17;;;9.40;99.90;;;;;;5031991;28;20044;-72
2024/01/03 05:07:39;;;;;;;2.65;0.70;;;9.50;99.90;;;;;;5032421;28;20021;-72
2024/01/03 05:10:08;;;;;;;3.88;0.70;;;9.50;99.90;;;;;;5031869;28;20057;-72
2024/01/03 05:12:34;;;;;;;4.82;0.93;;;9.50;99.90;;;;;;5033136;28;20021;-72
2024/01/03 05:15:00;;;;;;;5.15;1.00;;;9.50;99.90;;;;;;5035204;28;20014;-73
2024/01/03 05:17:26;;;;;;;1.77;0.70;;;9.50;99.90;;;;;;5035259;28;20518;-73
2024/01/03 05:19:52;;;;;;;5.13;0.98;;;9.50;99.90;;;;;;5035010;28;20152;-73
2024/01/03 05:22:18;;;;;;;5.18;0.93;;;9.40;99.90;;;;;;5035032;28;20067;-74
2024/01/03 05:24:43;;;;;;;3.60;0.77;;;9.50;99.90;;;;;;5035152;28;20036;-73
2024/01/03 05:27:10;;;;;;;5.35;0.98;;;;;;;;;;5037682;28;20029;-71
2024/01/03 05:29:36;;;;;;;4.38;0.98;;;;;;;;;;5034881;28;20021;-72
2024/01/03 05:32:02;;;;;;;2.78;0.93;;;;;;;;;;5034283;28;20032;-73
2024/01/03 05:34:28;;;;;;;1.65;0.60;;;;;;;;;;5034256;28;20500;-72
2024/01/03 05:36:53;;;;;;;5.93;0.80;;;;;;;;;;5034440;28;20109;-71
2024/01/03 05:39:19;;;;;;;2.00;0.68;;;;;;;;;;5034254;28;20032;-71
2024/01/03 05:41:45;;;;;;;2.03;0.75;;;;;;;;;;5034361;28;20036;-72
2024/01/03 05:44:13;;;;;;;1.45;0.65;;;;;;;;;;5034082;28;20451;-71
2024/01/03 05:46:39;;;;;;;2.15;0.70;;;;;;;;;;5034508;28;20021;-70
2024/01/03 05:49:05;;;;;;;3.28;0.60;;;;;;;;;;5034431;28;20120;-73
2024/01/03 05:51:31;;;;;;;2.58;0.77;;;;;;;;;;5034976;28;20515;-73
2024/01/03 05:53:57;;;;;;;2.15;0.60;;;;;;;;;;5034764;28;20061;-71
2024/01/03 05:56:23;;;;;;;2.38;0.75;;;;;;;;;;5034604;28;20052;-73
2024/01/03 05:58:49;;;;;;;1.60;0.60;;;;;;;;;;5016822;28;20073;-72
2024/01/03 06:01:16;;;;;;;3.10;0.70;;;;;;;;;;5034894;28;20110;-77
2024/01/03 06:03:42;;;;;;;3.50;0.55;;;;;;;;;;5033648;28;20492;-72
2024/01/03 06:06:08;;;;;;;2.72;0.75;;;;;;;;;;5033859;28;20025;-72
2024/01/03 06:08:34;;;;;;;4.75;0.98;;;;;;;;;;5033832;28;20024;-74
2024/01/03 06:11:00;;;;;;;1.10;0.70;;;;;;;;;;5033966;28;20057;-72
2024/01/03 06:13:26;;;;;;;2.63;0.80;;;;;;;;;;5033534;28;20029;-72
2024/01/03 06:15:52;;;;;;;3.13;1.15;;;;;;;;;;5033787;28;20021;-72
2024/01/03 06:18:18;;;;;;;3.17;1.20;;;;;;;;;;5033818;28;20036;-73
2024/01/03 06:20:44;;;;;;;2.08;0.80;;;;;;;;;;5029733;28;20022;-73
2024/01/03 06:23:10;;;;;;;3.08;0.90;;;;;;;;;;5031613;28;20079;-74
2024/01/03 06:25:37;;;;;;;3.80;0.80;;;;;;;;;;5033020;28;20013;-74
2024/01/03 06:28:03;;;;;;;4.30;1.63;;;;;;;;;;5034011;28;20033;-75
2024/01/03 06:30:29;;;;;;;4.60;1.00;;;;;;;;;;5035626;28;20025;-72
2024/01/03 06:32:55;;;;;;;4.90;1.00;;;;;;;;;;5034071;28;20037;-73
2024/01/03 06:35:21;;;;;;;8.57;2.92;;;;;;;;;;5039299;28;20033;-74
2024/01/03 06:37:47;;;;;;;2.47;0.80;;;;;;;;;;5045591;28;20044;-72
2024/01/03 06:40:14;;;;;;;3.25;0.80;;;;;;;;;;5038263;28;20042;-74
2024/01/03 06:42:40;;;;;;;2.25;0.70;;;;;;;;;;5032745;28;20032;-74
2024/01/03 06:45:07;;;;;;;7.00;1.25;;;;;;;;;;5031222;28;20100;-74
2024/01/03 06:47:33;;;;;;;1.17;0.70;;;;;;;;;;5033961;28;20528;-73
2024/01/03 06:49:59;;;;;;;3.53;0.90;;;;;;;;;;5033945;28;20040;-74
2024/01/03 06:52:26;;;;;;;2.60;0.70;;;;;;;;;;5031957;28;20100;-73
2024/01/03 06:54:54;;;;;;;4.97;1.00;;;;;;;;;;5030776;28;20084;-75
2024/01/03 06:57:20;;;;;;;1.60;0.60;;;;;;;;;;5033604;28;20427;-75
2024/01/03 06:59:46;;;;;;;2.03;0.65;;;;;;;;;;5035102;28;20029;-76
2024/01/03 07:02:12;;;;;;;4.53;0.93;;;;;;;;;;5035770;28;20033;-72
2024/01/03 07:04:38;;;;;;;4.55;0.90;;;;;;;;;;5030359;28;20528;-74
2024/01/03 07:07:04;;;;;;;2.85;0.77;;;;;;;;;;5032757;28;20030;-73
2024/01/03 07:09:30;;;;;;;0.98;0.50;;;;;;;;;;5032439;28;20028;-74
2024/01/03 07:11:56;;;;;;;3.17;0.65;;;;;;;;;;5029540;28;20100;-73
2024/01/03 07:14:22;;;;;;;2.45;0.80;;;;;;;;;;5031549;28;20060;-73
2024/01/03 07:16:48;;;;;;;2.53;1.05;;;;;;;;;;5014600;28;20041;-73
2024/01/03 07:19:14;;;;;;;2.25;0.73;;;;;;;;;;5032365;28;20036;-72
2024/01/03 07:21:40;;;;;;;1.48;0.70;;;;;;;;;;5032293;28;20484;-75
2024/01/03 07:24:06;;;;;;;1.25;0.70;;;;;;;;;;5035881;28;20098;-73
2024/01/03 07:26:32;;;;;;;0.70;0.50;;;;;;;;;;5033431;28;20029;-73
2024/01/03 07:28:58;;;;;;;2.08;0.70;;;;;;;;;;5034436;28;20025;-74
2024/01/03 07:31:24;;;;;;;1.33;0.50;;;;;;;;;;5033618;28;20071;-75
2024/01/03 07:33:50;;;;;;;2.10;0.75;;;;;;;;;;5031807;28;20060;-72
2024/01/03 07:36:16;;;;;;;1.85;0.82;;;;;;;;;;5032163;28;20103;-72
2024/01/03 07:38:44;;;;;;;2.90;0.77;;;;;;;;;;5014876;28;20029;-72
2024/01/03 07:41:10;;;;;;;3.83;0.85;;;;;;;;;;5032064;28;20040;-72
2024/01/03 07:43:36;;;;;;;2.55;0.80;;;;;;;;;;5031873;28;20026;-71
2024/01/03 07:46:02;;;;;;;1.52;0.80;;;;;;;;;;5032213;28;20029;-72
2024/01/03 07:48:28;;;;;;;2.75;0.77;;;;;;;;;;5032111;28;20025;-72
2024/01/03 07:50:54;;;;;;;2.97;0.63;;;;;;;;;;5032040;28;20079;-73
2024/01/03 07:53:20;;;;;;;3.90;1.98;;;;;;;;;;5031961;28;20036;-72
2024/01/03 07:55:46;;;;;;;4.53;0.95;;;;;;;;;;5032063;28;20026;-71
2024/01/03 07:58:12;;;;;;;5.68;1.10;;;;;;;;;;5031477;28;20386;-71
2024/01/03 08:00:38;;;;;;;7.32;1.50;;;;;;;;;;5031675;28;20030;-73
2024/01/03 08:03:04;;;;;;;9.82;1.70;;;;;;;;;;5031859;28;20033;-72
2024/01/03 08:05:31;;;;;;;9.02;2.05;;;;;;;;;;5032125;28;20431;-72
2024/01/03 08:07:58;;;;;;;11.77;2.40;;;;;;;;;;5031663;28;20049;-73
2024/01/03 08:10:24;;;;;;;13.48;2.63;;;;;;;;;;5031685;28;20108;-72
2024/01/03 08:12:50;;;;;;;17.33;2.70;;;;;;;;;;5031189;28;20031;-72
2024/01/03 08:15:16;;;;;;;26.70;3.70;;;;;;;;;;5031897;28;20396;-72
2024/01/03 08:17:42;;;;;;;19.20;2.78;;;;;;;;;;5031607;28;20025;-72
2024/01/03 08:20:09;;;;;;;16.40;3.13;;;;;;;;;;5030298;28;20030;-70
2024/01/03 08:22:35;;;;;;;21.27;3.20;;;;;;;;;;5030489;28;20124;-71
2024/01/03 08:25:01;;;;;;;20.85;3.95;;;;;;;;;;5037323;28;20021;-72
2024/01/03 08:27:27;;;;;;;18.17;3.40;;;;;;;;;;5051019;28;20127;-71
2024/01/03 08:29:54;;;;;;;24.92;3.10;;;;;;;;;;5050710;28;20057;-72
2024/01/03 08:32:20;;;;;;;25.15;2.85;;;;;;;;;;5050094;28;20373;-72
2024/01/03 08:34:46;;;;;;;21.67;3.08;;;;;;;;;;5032676;28;20036;-71
2024/01/03 08:37:12;;;;;;;24.17;2.97;;;;;;;;;;5051109;28;20032;-71
2024/01/03 08:39:38;;;;;;;26.58;3.38;;;;;;;;;;5050720;28;20025;-71
2024/01/03 08:42:04;;;;;;;24.42;4.18;;;;;;;;;;5050348;28;20025;-72
2024/01/03 08:44:30;;;;;;;17.75;2.72;;;;;;;;;;5051000;28;20021;-72
2024/01/03 08:46:57;;;;;;;23.98;3.67;;;;;;;;;;5051820;28;20439;-72
2024/01/03 08:49:23;;;;;;;15.25;2.65;;;;;;;;;;5055377;28;20029;-73
2024/01/03 08:51:49;;;;;;;21.92;3.30;;;;;;;;;;5055391;28;20047;-75
2024/01/03 08:54:16;;;;;;;28.45;3.28;;;;;;;;;;5055300;28;20048;-73
2024/01/03 08:56:42;;;;;;;24.77;3.83;;;;;;;;;;5055526;28;20033;-75
2024/01/03 08:59:08;;;;;;;22.90;3.55;;;;;;;;;;5054883;28;20025;-73
2024/01/03 09:01:37;;;;;;;20.63;3.58;;;;;;;;;;5055092;28;20025;-72
2024/01/03 09:04:03;;;;;;;28.42;3.80;;;;;;;;;;5054570;28;20029;-71
2024/01/03 09:06:32;;;;;;;17.73;2.72;;;;;;;;;;5054940;28;20025;-70
2024/01/03 09:08:58;;;;;;;24.40;3.05;;;;;;;;;;5054861;28;20127;-71
2024/01/03 09:11:26;;;;;;;15.55;2.60;;;;;;;;;;5054744;28;20056;-72
2024/01/03 09:13:53;;;;;;;12.10;2.53;;;;;;;;;;5054409;28;20096;-73
2024/01/03 09:16:20;;;;;;;17.95;3.17;;;;;;;;;;5054564;28;20025;-73
2024/01/03 09:18:46;;;;;;;51.72;9.25;;;;;;;;;;5054726;28;20714;-73
2024/01/03 09:21:12;;;;;;;32.70;4.53;;;;;;;;;;5054371;28;20400;-73
2024/01/03 09:23:38;;;;;;;21.85;3.55;;;;;;;;;;5055756;28;20022;-72
2024/01/03 09:26:09;;;;;;;27.17;2.83;;;;;;;;;;5055953;28;20033;-73
2024/01/03 09:28:37;;;;;;;27.98;2.90;;;;;;;;;;5055269;28;20055;-72
2024/01/03 09:31:03;;;;;;;21.02;3.17;;;;;;;;;;5055675;28;20021;-74
2024/01/03 09:33:29;;;;;;;19.98;2.92;;;;;;;;;;5054333;28;20036;-72
2024/01/03 09:35:55;;;;;;;29.60;3.75;;;;;;;;;;5054298;28;20060;-73
2024/01/03 09:38:21;;;;;;;18.42;2.83;;;;;;;;;;5054295;28;20040;-71
2024/01/03 09:40:48;;;;;;;22.35;3.53;;;;;;;;;;5054336;28;20028;-72
2024/01/03 09:43:14;;;;;;;19.35;3.05;;;;;;;;;;5053708;28;20033;-72
2024/01/03 09:45:40;;;;;;;18.42;2.75;;;;;;;;;;5054480;28;20021;-73
2024/01/03 09:48:06;;;;;;;20.20;2.80;;;;;;;;;;5054792;28;20391;-72
2024/01/03 09:50:33;;;;;;;15.05;2.83;;;;;;;;;;5054332;28;20021;-73
2024/01/03 09:52:59;;;;;;;18.25;3.15;;;;;;;;;;5053984;28;20368;-72
2024/01/03 09:55:27;;;;;;;8.88;2.13;;;;;;;;;;5053973;28;20522;-73
2024/01/03 09:57:54;;;;;;;19.60;2.70;;;;;;;;;;5053441;28;20033;-73
2024/01/03 10:00:20;;;;;;;12.48;2.17;;;;;;;;;;5052902;28;20021;-71
2024/01/03 10:02:47;;;;;;;18.45;2.28;;;;;;;;;;5053737;28;20028;-73
2024/01/03 10:05:20;;;;;;;14.90;3.00;;;;;;;;;;5053764;28;20476;-72
2024/01/03 10:07:46;;;;;;;19.67;2.83;;;;;;;;;;5053793;28;20043;-72
2024/01/03 10:10:13;;;;;;;22.75;2.88;;;;;;;;;;5053770;28;20032;-73
2024/01/03 10:12:40;;;;;;;16.80;3.05;;;;;;;;;;5046556;28;20022;-72
2024/01/03 10:15:15;;;;;;;19.20;3.13;;;;;;;;;;5033256;28;20022;-74
2024/01/03 10:17:43;;;;;;;16.52;2.85;;;;;;;;;;5033654;28;20423;-74
2024/01/03 10:20:30;;;;;;;22.48;2.78;;;;;;;;;;5033320;28;20052;-72
2024/01/03 10:23:05;;;;;;;19.92;2.53;;;;;;;;;;5032786;28;20025;-72
2024/01/03 10:25:32;;;;;;;17.90;2.60;;;;;;;;;;5033244;28;20022;-73
2024/01/03 10:28:01;;;;;;;25.52;3.50;;;;;;;;;;5033057;28;20018;-72
2024/01/03 10:30:28;;;;;;;20.90;4.32;;;;;;;;;;5033118;28;20033;-71
2024/01/03 10:32:58;;;;;;;18.73;3.20;;;;;;;;;;5032575;28;20022;-72
2024/01/03 10:35:26;;;;;;;26.50;3.17;;;;;;;;;;5033621;28;20045;-73
2024/01/03 10:37:53;;;;;;;26.85;3.80;;;;;;;;;;5033342;28;20033;-71
2024/01/03 10:40:19;;;;;;;20.55;2.90;;;;;;;;;;5033369;28;20033;-77
2024/01/03 10:42:49;;;;;;;20.42;3.25;;;;;;;;;;5033080;28;20087;-75
2024/01/03 10:45:15;;;;;;;20.00;3.03;;;;;;;;;;5033150;28;20109;-77
2024/01/03 10:47:42;;;;;;;20.48;3.65;;;;;;;;;;5033130;28;20021;-72
2024/01/03 10:50:09;;;;;;;20.25;3.10;;;;;;;;;;5033019;28;20017;-73
2024/01/03 10:52:39;;;;;;;20.13;3.42;;;;;;;;;;5032812;28;20064;-73
2024/01/03 10:55:06;;;;;;;17.40;2.97;;;;;;;;;;5032790;28;20105;-72
2024/01/03 10:57:35;;;;;;;17.05;2.88;;;;;;;;;;5033026;28;20096;-73
2024/01/03 11:00:12;;;;;;;23.40;3.75;;;;;;;;;;5033284;28;20056;-73
2024/01/03 11:02:42;;;;;;;17.55;2.90;;;;;;;;;;5033246;28;20021;-71
2024/01/03 11:05:13;;;;;;;23.08;3.38;;;;;;;;;;5032700;28;20099;-72
2024/01/03 11:07:44;;;;;;;16.10;2.33;;;;;;;;;;5033349;28;20388;-73
2024/01/03 11:10:10;;;;;;;15.90;2.70;;;;;;;;;;5032702;28;20021;-72
2024/01/03 11:12:36;;;;;;;17.95;2.67;;;;;;;;;;5032539;28;20065;-72
2024/01/03 11:15:21;;;;;;;16.27;2.60;;;;;;;;;;5030383;28;20495;-72
2024/01/03 11:17:47;;;;;;;13.40;1.98;;;;;;;;;;5032749;28;20546;-72
2024/01/03 11:20:13;;;;;;;18.83;3.03;;;;;;;;;;5031525;28;20496;-75
2024/01/03 11:22:55;;;;;;;14.30;2.13;;;;;;;;;;5031494;28;20061;-73
2024/01/03 11:25:40;;;;;;;16.63;3.13;;;;;;;;;;5031613;28;20348;-72
2024/01/03 11:28:25;;;;;;;14.52;1.92;;;;;;;;;;5031024;28;20089;-72
2024/01/03 11:30:51;;;;;;;14.40;2.33;;;;;;;;;;5031097;28;20049;-72
2024/01/03 11:33:24;;;;;;;12.65;2.20;;;;;;;;;;5030419;28;20526;-71
2024/01/03 11:35:50;;;;;;;19.13;2.50;;;;;;;;;;5031082;28;20488;-71
2024/01/03 11:38:35;;;;;;;12.13;2.13;;;;;;;;;;5030747;28;20064;-71
2024/01/03 11:41:01;;;;;;;6.88;1.67;;;;;;;;;;5030417;28;20029;-71
2024/01/03 11:43:27;;;;;;;9.10;1.50;;;;;;;;;;5030299;28;20100;-70
2024/01/03 11:46:05;;;;;;;11.05;1.42;;;;;;;;;;5030848;28;20366;-72
2024/01/03 11:48:31;;;;;;;7.22;1.48;;;;;;;;;;5031193;28;20025;-74
2024/01/03 11:50:57;;;;;;;8.27;1.92;;;;;;;;;;5031458;28;20289;-73
2024/01/03 11:53:24;;;;;;;6.68;1.38;;;;;;;;;;5029826;28;20029;-74
2024/01/03 11:55:53;;;;;;;11.32;1.75;;;;;;;;;;5030786;28;20022;-72
2024/01/03 11:58:19;;;;;;;8.45;1.25;;;;;;;;;;5031101;28;20441;-72
2024/01/03 12:00:45;;;;;;;10.45;2.00;;;;;;;;;;5030887;28;20030;-73
2024/01/03 12:03:18;;;;;;;11.70;1.77;;;;;;;;;;5030623;28;20026;-72
2024/01/03 12:05:44;;;;;;;12.10;2.00;;;;;;;;;;5030328;28;20025;-71
2024/01/03 12:08:11;;;;;;;16.65;2.10;;;;;;;;;;5030750;28;20033;-74
2024/01/03 12:10:37;;;;;;;10.00;2.30;;;;;;;;;;5030595;28;20387;-72
2024/01/03 12:13:03;;;;;;;10.80;2.33;;;;;;;;;;5029819;28;20026;-73
2024/01/03 12:15:29;;;;;;;16.17;2.17;;;;;;;;;;5030254;28;20025;-74
2024/01/03 12:18:05;;;;;;;13.55;2.25;;;;;;;;;;5030741;28;20044;-73
2024/01/03 12:20:31;;;;;;;35.17;8.48;;;;;;;;;;5030351;28;20052;-74
2024/01/03 12:23:06;;;;;;;28.13;6.90;;;;;;;;;;5030035;28;20029;-72
2024/01/03 12:25:32;;;;;;;33.85;7.53;;;;;;;;;;5030845;28;20365;-73
2024/01/03 12:27:58;;;;;;;19.35;5.00;;;;;;;;;;5030465;28;20025;-72
2024/01/03 12:30:25;;;;;;;16.98;3.50;;;;;;;;;;5030737;28;20075;-72
2024/01/03 12:32:51;;;;;;;14.95;2.97;;;;;;;;;;5029418;28;20032;-71
2024/01/03 12:35:17;;;;;;;11.90;3.10;;;;;;;;;;5029860;28;20029;-72
2024/01/03 12:37:44;;;;;;;15.95;2.30;;;;;;;;;;5030377;28;20030;-73
2024/01/03 12:40:19;;;;;;;12.00;2.20;;;;;;;;;;5029555;28;20021;-72
2024/01/03 12:42:46;;;;;;;14.10;1.85;;;;;;;;;;5030783;28;20033;-74
2024/01/03 12:45:12;;;;;;;16.15;2.15;;;;;;;;;;5030831;28;20021;-72
2024/01/03 12:47:39;;;;;;;11.35;2.22;;;;;;;;;;5030468;28;20045;-71
2024/01/03 12:50:07;;;;;;;12.98;2.63;;;;;;;;;;5030206;28;20067;-72
2024/01/03 12:52:35;;;;;;;13.10;2.38;;;;;;;;;;5029067;28;20048;-72
2024/01/03 12:55:01;;;;;;;10.88;1.90;;;;;;;;;;5030429;28;20492;-74
2024/01/03 12:57:28;;;;;;;15.95;1.85;;;;;;;;;;5029792;28;20501;-75
2024/01/03 12:59:54;;;;;;;14.20;2.15;;;;;;;;;;5030159;28;20033;-74
2024/01/03 13:02:20;;;;;;;16.33;2.13;;;;;;;;;;5029329;28;20105;-72
2024/01/03 13:04:46;;;;;;;12.63;2.53;;;;;;;;;;5030141;28;20022;-73
2024/01/03 13:07:13;;;;;;;14.77;3.83;;;;;;;;;;5029959;28;20381;-72
2024/01/03 13:09:39;;;;;;;11.40;1.92;;;;;;;;;;5029639;28;20033;-72
2024/01/03 13:12:05;;;;;;;13.15;1.70;;;;;;;;;;5029190;28;20025;-72
2024/01/03 13:14:31;;;;;;;14.98;2.00;;;;;;;;;;5029928;28;20132;-71
2024/01/03 13:16:58;;;;;;;13.02;2.13;;;;;;;;;;5030667;28;20026;-72
2024/01/03 13:19:24;;;;;;;11.55;2.47;;;;;;;;;;5031150;28;20045;-72
2024/01/03 13:21:50;;;;;;;11.35;1.95;;;;;;;;;;5030933;28;20040;-71
2024/01/03 13:24:16;;;;;;;16.70;1.90;;;;;;;;;;5030093;28;20417;-72
2024/01/03 13:26:42;;;;;;;15.68;2.60;;;;;;;;;;5030804;28;20068;-73
2024/01/03 13:29:08;;;;;;;13.30;2.40;;;;;;;;;;5031274;28;20393;-70
2024/01/03 13:31:34;;;;;;;13.80;2.60;;;;;;;;;;5030508;28;20527;-72
2024/01/03 13:34:01;;;;;;;9.55;2.20;;;;;;;;;;5030673;28;20110;-72
2024/01/03 13:36:27;;;;;;;9.55;1.90;;;;;;;;;;5034784;28;20056;-73
2024/01/03 13:38:53;;;;;;;13.38;2.55;;;;;;;;;;5036073;28;20087;-72
2024/01/03 13:41:19;;;;;;;11.50;1.83;;;;;;;;;;5034308;28;20033;-73
2024/01/03 13:43:46;;;;;;;12.98;2.78;;;;;;;;;;5031485;28;20105;-72
2024/01/03 13:46:15;;;;;;;17.38;2.35;;;;;;;;;;5034191;28;20029;-73
2024/01/03 13:48:42;;;;;;;9.98;2.00;;;;;;;;;;5033922;28;20152;-72